sensor_id;sensor_type;location;lat;lon;timestamp;temperature;humidity
42715;DHT22;28351;51.480;5.706;2022-10-24T00:01:40;14.10;99.90
42715;DHT22;28351;51.480;5.706;2022-10-24T00:04:06;14.10;99.90
42715;DHT22;28351;51.480;5.706;2022-10-24T00:06:32;14.10;99.90
42715;DHT22;28351;51.480;5.706;2022-10-24T00:08:58;14.30;99.90
42715;DHT22;28351;51.480;5.706;2022-10-24T00:11:26;14.30;99.90
42715;DHT22;28351;51.480;5.706;2022-10-24T00:13:53;14.30;99.90
42715;DHT22;28351;51.480;5.706;2022-10-24T00:16:19;14.30;99.90
42715;DHT22;28351;51.480;5.706;2022-10-24T00:18:45;14.20;99.90
42715;DHT22;28351;51.480;5.706;2022-10-24T00:21:10;14.20;99.90
42715;DHT22;28351;51.480;5.706;2022-10-24T00:23:36;14.10;99.90
42715;DHT22;28351;51.480;5.706;2022-10-24T00:26:03;14.20;99.90
42715;DHT22;28351;51.480;5.706;2022-10-24T00:28:35;14.10;99.90
42715;DHT22;28351;51.480;5.706;2022-10-24T00:31:02;14.00;99.90
42715;DHT22;28351;51.480;5.706;2022-10-24T00:33:28;14.00;99.90
42715;DHT22;28351;51.480;5.706;2022-10-24T00:35:53;14.00;99.90
42715;DHT22;28351;51.480;5.706;2022-10-24T00:38:19;13.90;99.90
42715;DHT22;28351;51.480;5.706;2022-10-24T00:40:44;13.90;99.90
42715;DHT22;28351;51.480;5.706;2022-10-24T00:43:16;13.90;99.90
42715;DHT22;28351;51.480;5.706;2022-10-24T00:45:44;13.80;99.90
42715;DHT22;28351;51.480;5.706;2022-10-24T00:48:31;13.70;99.90
42715;DHT22;28351;51.480;5.706;2022-10-24T00:51:04;13.70;99.90
42715;DHT22;28351;51.480;5.706;2022-10-24T00:53:34;13.80;99.90
42715;DHT22;28351;51.480;5.706;2022-10-24T00:56:04;13.80;99.90
42715;DHT22;28351;51.480;5.706;2022-10-24T00:58:31;13.90;99.90
42715;DHT22;28351;51.480;5.706;2022-10-24T01:00:58;14.00;99.90
42715;DHT22;28351;51.480;5.706;2022-10-24T01:03:24;14.10;99.90
42715;DHT22;28351;51.480;5.706;2022-10-24T01:06:20;14.00;99.90
42715;DHT22;28351;51.480;5.706;2022-10-24T01:11:40;14.00;99.90
42715;DHT22;28351;51.480;5.706;2022-10-24T01:14:37;14.10;99.90
42715;DHT22;28351;51.480;5.706;2022-10-24T01:17:41;14.20;99.90
42715;DHT22;28351;51.480;5.706;2022-10-24T01:20:44;14.20;99.90
42715;DHT22;28351;51.480;5.706;2022-10-24T01:31:48;14.50;99.90
42715;DHT22;28351;51.480;5.706;2022-10-24T01:34:22;14.60;99.90
42715;DHT22;28351;51.480;5.706;2022-10-24T01:37:02;14.70;99.90
42715;DHT22;28351;51.480;5.706;2022-10-24T01:39:41;14.90;99.90
42715;DHT22;28351;51.480;5.706;2022-10-24T01:42:11;14.80;99.90
42715;DHT22;28351;51.480;5.706;2022-10-24T01:44:41;14.80;99.90
42715;DHT22;28351;51.480;5.706;2022-10-24T01:47:15;15.10;99.90
42715;DHT22;28351;51.480;5.706;2022-10-24T01:49:45;15.10;99.90
42715;DHT22;28351;51.480;5.706;2022-10-24T01:52:17;15.20;99.90
42715;DHT22;28351;51.480;5.706;2022-10-24T01:54:46;15.30;99.90
42715;DHT22;28351;51.480;5.706;2022-10-24T01:57:13;15.40;99.90
42715;DHT22;28351;51.480;5.706;2022-10-24T01:59:42;15.50;99.90
42715;DHT22;28351;51.480;5.706;2022-10-24T02:04:47;15.40;99.90
42715;DHT22;28351;51.480;5.706;2022-10-24T02:07:14;15.30;99.90
42715;DHT22;28351;51.480;5.706;2022-10-24T02:09:42;15.30;99.90
42715;DHT22;28351;51.480;5.706;2022-10-24T02:12:14;15.20;99.90
42715;DHT22;28351;51.480;5.706;2022-10-24T02:14:47;15.00;99.90
42715;DHT22;28351;51.480;5.706;2022-10-24T02:17:14;14.80;99.90
42715;DHT22;28351;51.480;5.706;2022-10-24T02:19:40;14.90;99.90
42715;DHT22;28351;51.480;5.706;2022-10-24T02:22:56;15.00;99.90
42715;DHT22;28351;51.480;5.706;2022-10-24T02:25:06;15.00;99.90
42715;DHT22;28351;51.480;5.706;2022-10-24T02:27:50;15.20;99.90
42715;DHT22;28351;51.480;5.706;2022-10-24T02:30:20;15.50;99.90
42715;DHT22;28351;51.480;5.706;2022-10-24T02:32:50;15.50;99.90
42715;DHT22;28351;51.480;5.706;2022-10-24T02:35:19;15.40;99.90
42715;DHT22;28351;51.480;5.706;2022-10-24T02:37:50;15.30;99.90
42715;DHT22;28351;51.480;5.706;2022-10-24T02:40:19;15.30;99.90
42715;DHT22;28351;51.480;5.706;2022-10-24T02:42:49;15.10;99.90
42715;DHT22;28351;51.480;5.706;2022-10-24T02:45:16;15.10;99.90
42715;DHT22;28351;51.480;5.706;2022-10-24T02:47:44;15.00;99.90
42715;DHT22;28351;51.480;5.706;2022-10-24T02:50:10;15.20;99.90
42715;DHT22;28351;51.480;5.706;2022-10-24T02:52:37;15.20;99.90
42715;DHT22;28351;51.480;5.706;2022-10-24T02:55:05;15.20;99.90
42715;DHT22;28351;51.480;5.706;2022-10-24T02:57:31;15.20;99.90
42715;DHT22;28351;51.480;5.706;2022-10-24T02:59:56;15.40;99.90
42715;DHT22;28351;51.480;5.706;2022-10-24T03:02:24;15.40;99.90
42715;DHT22;28351;51.480;5.706;2022-10-24T03:04:50;15.50;99.90
42715;DHT22;28351;51.480;5.706;2022-10-24T03:07:16;15.40;99.90
42715;DHT22;28351;51.480;5.706;2022-10-24T03:09:41;15.30;99.90
42715;DHT22;28351;51.480;5.706;2022-10-24T03:12:12;15.30;99.90
42715;DHT22;28351;51.480;5.706;2022-10-24T03:14:39;15.40;99.90
42715;DHT22;28351;51.480;5.706;2022-10-24T03:17:05;15.40;99.90
42715;DHT22;28351;51.480;5.706;2022-10-24T03:19:30;15.40;99.90
42715;DHT22;28351;51.480;5.706;2022-10-24T03:21:56;15.50;99.90
42715;DHT22;28351;51.480;5.706;2022-10-24T03:24:21;15.50;99.90
42715;DHT22;28351;51.480;5.706;2022-10-24T03:26:47;15.40;99.90
42715;DHT22;28351;51.480;5.706;2022-10-24T03:29:17;15.20;99.90
42715;DHT22;28351;51.480;5.706;2022-10-24T03:31:42;15.20;99.90
42715;DHT22;28351;51.480;5.706;2022-10-24T03:34:08;15.30;99.90
42715;DHT22;28351;51.480;5.706;2022-10-24T03:36:46;15.20;99.90
42715;DHT22;28351;51.480;5.706;2022-10-24T03:39:11;15.30;99.90
42715;DHT22;28351;51.480;5.706;2022-10-24T03:41:37;15.20;99.90
42715;DHT22;28351;51.480;5.706;2022-10-24T03:44:02;15.20;99.90
42715;DHT22;28351;51.480;5.706;2022-10-24T03:46:28;15.30;99.90
42715;DHT22;28351;51.480;5.706;2022-10-24T03:48:54;15.40;99.90
42715;DHT22;28351;51.480;5.706;2022-10-24T03:51:19;15.40;99.90
42715;DHT22;28351;51.480;5.706;2022-10-24T03:53:45;15.50;99.90
42715;DHT22;28351;51.480;5.706;2022-10-24T03:56:10;15.30;99.90
42715;DHT22;28351;51.480;5.706;2022-10-24T03:58:36;15.50;99.90
42715;DHT22;28351;51.480;5.706;2022-10-24T04:01:02;15.30;99.90
42715;DHT22;28351;51.480;5.706;2022-10-24T04:03:27;15.40;99.90
42715;DHT22;28351;51.480;5.706;2022-10-24T04:05:53;15.30;99.90
42715;DHT22;28351;51.480;5.706;2022-10-24T04:08:19;15.30;99.90
42715;DHT22;28351;51.480;5.706;2022-10-24T04:10:45;15.40;99.90
42715;DHT22;28351;51.480;5.706;2022-10-24T04:13:11;15.40;99.90
42715;DHT22;28351;51.480;5.706;2022-10-24T04:15:36;15.40;99.90
42715;DHT22;28351;51.480;5.706;2022-10-24T04:18:02;15.50;99.90
42715;DHT22;28351;51.480;5.706;2022-10-24T04:20:28;15.60;99.90
42715;DHT22;28351;51.480;5.706;2022-10-24T04:22:54;15.60;99.90
42715;DHT22;28351;51.480;5.706;2022-10-24T04:25:19;15.60;99.90
42715;DHT22;28351;51.480;5.706;2022-10-24T04:27:45;15.80;99.90
42715;DHT22;28351;51.480;5.706;2022-10-24T04:30:12;15.70;99.90
42715;DHT22;28351;51.480;5.706;2022-10-24T04:32:41;15.80;99.90
42715;DHT22;28351;51.480;5.706;2022-10-24T04:35:07;15.80;99.90
42715;DHT22;28351;51.480;5.706;2022-10-24T04:37:33;15.60;99.90
42715;DHT22;28351;51.480;5.706;2022-10-24T04:39:58;15.70;99.90
42715;DHT22;28351;51.480;5.706;2022-10-24T04:42:24;15.60;99.90
42715;DHT22;28351;51.480;5.706;2022-10-24T04:44:50;15.50;99.90
42715;DHT22;28351;51.480;5.706;2022-10-24T04:47:17;15.40;99.90
42715;DHT22;28351;51.480;5.706;2022-10-24T04:49:43;15.30;99.90
42715;DHT22;28351;51.480;5.706;2022-10-24T04:52:09;15.40;99.90
42715;DHT22;28351;51.480;5.706;2022-10-24T04:54:34;15.60;99.90
42715;DHT22;28351;51.480;5.706;2022-10-24T04:57:00;15.50;99.90
42715;DHT22;28351;51.480;5.706;2022-10-24T04:59:26;15.40;99.90
42715;DHT22;28351;51.480;5.706;2022-10-24T05:01:51;15.40;99.90
42715;DHT22;28351;51.480;5.706;2022-10-24T05:04:19;15.50;99.90
42715;DHT22;28351;51.480;5.706;2022-10-24T05:06:45;15.50;99.90
42715;DHT22;28351;51.480;5.706;2022-10-24T05:09:12;15.50;99.90
42715;DHT22;28351;51.480;5.706;2022-10-24T05:11:37;15.60;99.90
42715;DHT22;28351;51.480;5.706;2022-10-24T05:14:03;15.60;99.90
42715;DHT22;28351;51.480;5.706;2022-10-24T05:16:28;15.60;99.90
42715;DHT22;28351;51.480;5.706;2022-10-24T05:18:54;15.60;99.90
42715;DHT22;28351;51.480;5.706;2022-10-24T05:21:20;15.40;99.90
42715;DHT22;28351;51.480;5.706;2022-10-24T05:23:45;15.40;99.90
42715;DHT22;28351;51.480;5.706;2022-10-24T05:26:11;15.50;99.90
42715;DHT22;28351;51.480;5.706;2022-10-24T05:28:36;15.40;99.90
42715;DHT22;28351;51.480;5.706;2022-10-24T05:31:02;15.40;99.90
42715;DHT22;28351;51.480;5.706;2022-10-24T05:33:28;15.40;99.90
42715;DHT22;28351;51.480;5.706;2022-10-24T05:35:53;15.50;99.90
42715;DHT22;28351;51.480;5.706;2022-10-24T05:38:19;15.40;99.90
42715;DHT22;28351;51.480;5.706;2022-10-24T05:40:46;15.50;99.90
42715;DHT22;28351;51.480;5.706;2022-10-24T05:43:16;15.50;99.90
42715;DHT22;28351;51.480;5.706;2022-10-24T05:45:42;15.50;99.90
42715;DHT22;28351;51.480;5.706;2022-10-24T05:48:08;15.60;99.90
42715;DHT22;28351;51.480;5.706;2022-10-24T05:50:34;15.70;99.90
42715;DHT22;28351;51.480;5.706;2022-10-24T05:53:00;15.80;99.90
42715;DHT22;28351;51.480;5.706;2022-10-24T05:55:26;15.80;99.90
42715;DHT22;28351;51.480;5.706;2022-10-24T05:57:52;15.80;99.90
42715;DHT22;28351;51.480;5.706;2022-10-24T06:00:18;15.90;99.90
42715;DHT22;28351;51.480;5.706;2022-10-24T06:02:43;15.90;99.90
42715;DHT22;28351;51.480;5.706;2022-10-24T06:05:22;15.90;99.90
42715;DHT22;28351;51.480;5.706;2022-10-24T06:07:48;15.90;99.90
42715;DHT22;28351;51.480;5.706;2022-10-24T06:10:13;16.00;99.90
42715;DHT22;28351;51.480;5.706;2022-10-24T06:12:39;15.90;99.90
42715;DHT22;28351;51.480;5.706;2022-10-24T06:15:07;15.90;99.90
42715;DHT22;28351;51.480;5.706;2022-10-24T06:17:40;15.80;99.90
42715;DHT22;28351;51.480;5.706;2022-10-24T06:20:06;15.60;99.90
42715;DHT22;28351;51.480;5.706;2022-10-24T06:22:32;15.60;99.90
42715;DHT22;28351;51.480;5.706;2022-10-24T06:24:57;15.40;99.90
42715;DHT22;28351;51.480;5.706;2022-10-24T06:27:24;15.50;99.90
42715;DHT22;28351;51.480;5.706;2022-10-24T06:29:50;15.40;99.90
42715;DHT22;28351;51.480;5.706;2022-10-24T06:32:15;15.30;99.90
42715;DHT22;28351;51.480;5.706;2022-10-24T06:34:44;15.40;99.90
42715;DHT22;28351;51.480;5.706;2022-10-24T06:37:10;15.30;99.90
42715;DHT22;28351;51.480;5.706;2022-10-24T06:39:35;15.40;99.90
42715;DHT22;28351;51.480;5.706;2022-10-24T06:42:01;15.30;99.90
42715;DHT22;28351;51.480;5.706;2022-10-24T06:44:27;15.30;99.90
42715;DHT22;28351;51.480;5.706;2022-10-24T06:46:52;15.30;99.90
42715;DHT22;28351;51.480;5.706;2022-10-24T06:49:18;15.30;99.90
42715;DHT22;28351;51.480;5.706;2022-10-24T06:51:43;15.40;99.90
42715;DHT22;28351;51.480;5.706;2022-10-24T06:54:09;15.50;99.90
42715;DHT22;28351;51.480;5.706;2022-10-24T06:56:38;15.60;99.90
42715;DHT22;28351;51.480;5.706;2022-10-24T06:59:11;15.50;99.90
42715;DHT22;28351;51.480;5.706;2022-10-24T07:01:38;15.50;99.90
42715;DHT22;28351;51.480;5.706;2022-10-24T07:04:04;15.50;99.90
42715;DHT22;28351;51.480;5.706;2022-10-24T07:06:30;15.60;99.90
42715;DHT22;28351;51.480;5.706;2022-10-24T07:08:58;15.70;99.90
42715;DHT22;28351;51.480;5.706;2022-10-24T07:11:25;15.60;99.90
42715;DHT22;28351;51.480;5.706;2022-10-24T07:13:51;15.70;99.90
42715;DHT22;28351;51.480;5.706;2022-10-24T07:16:16;15.70;99.90
42715;DHT22;28351;51.480;5.706;2022-10-24T07:18:43;15.70;99.90
42715;DHT22;28351;51.480;5.706;2022-10-24T07:21:18;15.70;99.90
42715;DHT22;28351;51.480;5.706;2022-10-24T07:23:45;15.80;99.90
42715;DHT22;28351;51.480;5.706;2022-10-24T07:26:13;15.90;99.90
42715;DHT22;28351;51.480;5.706;2022-10-24T07:28:45;15.90;99.90
42715;DHT22;28351;51.480;5.706;2022-10-24T07:31:15;15.90;99.90
42715;DHT22;28351;51.480;5.706;2022-10-24T07:33:41;15.80;99.90
42715;DHT22;28351;51.480;5.706;2022-10-24T07:36:07;15.80;99.90
42715;DHT22;28351;51.480;5.706;2022-10-24T07:38:32;15.80;99.90
42715;DHT22;28351;51.480;5.706;2022-10-24T07:41:02;15.90;99.90
42715;DHT22;28351;51.480;5.706;2022-10-24T07:43:28;15.90;99.90
42715;DHT22;28351;51.480;5.706;2022-10-24T07:45:54;15.90;99.90
42715;DHT22;28351;51.480;5.706;2022-10-24T07:48:19;15.90;99.90
42715;DHT22;28351;51.480;5.706;2022-10-24T07:50:46;16.00;99.90
42715;DHT22;28351;51.480;5.706;2022-10-24T07:53:12;16.10;99.90
42715;DHT22;28351;51.480;5.706;2022-10-24T07:55:39;16.20;99.90
42715;DHT22;28351;51.480;5.706;2022-10-24T07:58:06;16.30;99.90
42715;DHT22;28351;51.480;5.706;2022-10-24T08:00:32;16.40;99.90
42715;DHT22;28351;51.480;5.706;2022-10-24T08:02:57;16.40;99.90
42715;DHT22;28351;51.480;5.706;2022-10-24T08:05:23;16.40;99.90
42715;DHT22;28351;51.480;5.706;2022-10-24T08:07:49;16.40;99.90
42715;DHT22;28351;51.480;5.706;2022-10-24T08:10:15;16.20;99.90
42715;DHT22;28351;51.480;5.706;2022-10-24T08:12:41;16.10;99.90
42715;DHT22;28351;51.480;5.706;2022-10-24T08:15:07;16.20;99.90
42715;DHT22;28351;51.480;5.706;2022-10-24T08:17:33;16.40;99.90
42715;DHT22;28351;51.480;5.706;2022-10-24T08:20:02;16.60;99.90
42715;DHT22;28351;51.480;5.706;2022-10-24T08:22:28;16.70;99.90
42715;DHT22;28351;51.480;5.706;2022-10-24T08:24:53;16.80;99.90
42715;DHT22;28351;51.480;5.706;2022-10-24T08:27:19;16.90;99.90
42715;DHT22;28351;51.480;5.706;2022-10-24T08:29:44;16.90;99.90
42715;DHT22;28351;51.480;5.706;2022-10-24T08:32:10;16.90;99.90
42715;DHT22;28351;51.480;5.706;2022-10-24T09:06:22;16.70;99.90
42715;DHT22;28351;51.480;5.706;2022-10-24T09:09:04;16.80;99.90
42715;DHT22;28351;51.480;5.706;2022-10-24T09:11:59;16.80;99.90
42715;DHT22;28351;51.480;5.706;2022-10-24T09:14:30;16.90;99.90
42715;DHT22;28351;51.480;5.706;2022-10-24T09:19:27;17.10;99.90
42715;DHT22;28351;51.480;5.706;2022-10-24T09:21:55;17.10;99.90
42715;DHT22;28351;51.480;5.706;2022-10-24T09:27:26;16.90;99.90
42715;DHT22;28351;51.480;5.706;2022-10-24T09:29:52;17.10;99.90
42715;DHT22;28351;51.480;5.706;2022-10-24T09:32:20;17.20;99.90
42715;DHT22;28351;51.480;5.706;2022-10-24T09:34:47;17.20;99.90
42715;DHT22;28351;51.480;5.706;2022-10-24T09:37:32;17.30;99.90
42715;DHT22;28351;51.480;5.706;2022-10-24T09:42:39;17.80;99.90
42715;DHT22;28351;51.480;5.706;2022-10-24T09:45:32;17.80;99.90
42715;DHT22;28351;51.480;5.706;2022-10-24T09:48:05;17.80;99.90
42715;DHT22;28351;51.480;5.706;2022-10-24T09:50:33;17.90;99.90
42715;DHT22;28351;51.480;5.706;2022-10-24T09:53:01;17.90;99.90
42715;DHT22;28351;51.480;5.706;2022-10-24T09:55:28;17.90;99.90
42715;DHT22;28351;51.480;5.706;2022-10-24T09:57:58;17.90;99.90
42715;DHT22;28351;51.480;5.706;2022-10-24T10:00:33;17.80;99.90
42715;DHT22;28351;51.480;5.706;2022-10-24T10:03:00;17.80;99.90
42715;DHT22;28351;51.480;5.706;2022-10-24T10:05:29;17.70;99.90
42715;DHT22;28351;51.480;5.706;2022-10-24T10:08:10;17.70;99.90
42715;DHT22;28351;51.480;5.706;2022-10-24T10:10:37;17.70;99.90
42715;DHT22;28351;51.480;5.706;2022-10-24T10:15:44;17.70;99.90
42715;DHT22;28351;51.480;5.706;2022-10-24T10:21:16;18.20;99.90
42715;DHT22;28351;51.480;5.706;2022-10-24T10:26:28;18.20;99.90
42715;DHT22;28351;51.480;5.706;2022-10-24T10:31:23;18.20;99.90
42715;DHT22;28351;51.480;5.706;2022-10-24T10:34:04;18.10;99.90
42715;DHT22;28351;51.480;5.706;2022-10-24T10:39:39;17.90;99.90
42715;DHT22;28351;51.480;5.706;2022-10-24T10:42:14;17.80;99.90
42715;DHT22;28351;51.480;5.706;2022-10-24T10:53:16;17.30;99.90
42715;DHT22;28351;51.480;5.706;2022-10-24T10:55:51;17.20;99.90
42715;DHT22;28351;51.480;5.706;2022-10-24T10:59:24;17.20;99.90
42715;DHT22;28351;51.480;5.706;2022-10-24T11:02:02;17.30;99.90
42715;DHT22;28351;51.480;5.706;2022-10-24T11:04:46;17.40;99.90
42715;DHT22;28351;51.480;5.706;2022-10-24T11:07:41;17.50;99.90
42715;DHT22;28351;51.480;5.706;2022-10-24T11:10:12;17.50;99.90
42715;DHT22;28351;51.480;5.706;2022-10-24T11:12:41;17.70;99.90
42715;DHT22;28351;51.480;5.706;2022-10-24T11:15:26;18.00;99.90
42715;DHT22;28351;51.480;5.706;2022-10-24T11:20:58;19.20;99.90
42715;DHT22;28351;51.480;5.706;2022-10-24T11:26:07;19.70;99.90
42715;DHT22;28351;51.480;5.706;2022-10-24T11:31:19;20.50;99.90
42715;DHT22;28351;51.480;5.706;2022-10-24T11:36:45;19.70;99.90
42715;DHT22;28351;51.480;5.706;2022-10-24T11:39:34;19.60;99.90
42715;DHT22;28351;51.480;5.706;2022-10-24T11:42:05;19.40;99.90
42715;DHT22;28351;51.480;5.706;2022-10-24T11:44:53;19.20;99.90
42715;DHT22;28351;51.480;5.706;2022-10-24T11:52:42;20.70;99.90
42715;DHT22;28351;51.480;5.706;2022-10-24T11:55:27;20.70;99.90
42715;DHT22;28351;51.480;5.706;2022-10-24T11:57:57;20.20;99.90
42715;DHT22;28351;51.480;5.706;2022-10-24T12:00:38;21.40;99.90
42715;DHT22;28351;51.480;5.706;2022-10-24T12:06:50;22.40;99.90
42715;DHT22;28351;51.480;5.706;2022-10-24T12:09:47;23.70;99.90
42715;DHT22;28351;51.480;5.706;2022-10-24T12:11:55;22.50;99.90
42715;DHT22;28351;51.480;5.706;2022-10-24T12:14:33;21.60;99.90
42715;DHT22;28351;51.480;5.706;2022-10-24T12:19:32;21.90;99.90
42715;DHT22;28351;51.480;5.706;2022-10-24T12:22:01;21.90;99.90
42715;DHT22;28351;51.480;5.706;2022-10-24T12:27:03;22.00;99.90
42715;DHT22;28351;51.480;5.706;2022-10-24T12:29:31;21.50;99.90
42715;DHT22;28351;51.480;5.706;2022-10-24T12:32:44;20.60;99.90
42715;DHT22;28351;51.480;5.706;2022-10-24T12:34:56;19.50;99.90
42715;DHT22;28351;51.480;5.706;2022-10-24T12:39:49;22.50;99.90
42715;DHT22;28351;51.480;5.706;2022-10-24T12:44:44;21.00;99.90
42715;DHT22;28351;51.480;5.706;2022-10-24T12:47:32;19.90;99.90
42715;DHT22;28351;51.480;5.706;2022-10-24T12:57:56;18.20;99.90
42715;DHT22;28351;51.480;5.706;2022-10-24T13:00:27;18.10;99.90
42715;DHT22;28351;51.480;5.706;2022-10-24T13:03:20;18.20;99.90
42715;DHT22;28351;51.480;5.706;2022-10-24T13:06:06;19.40;99.90
42715;DHT22;28351;51.480;5.706;2022-10-24T13:09:04;20.60;99.90
42715;DHT22;28351;51.480;5.706;2022-10-24T13:11:43;22.40;99.90
42715;DHT22;28351;51.480;5.706;2022-10-24T13:17:19;23.90;99.90
42715;DHT22;28351;51.480;5.706;2022-10-24T13:19:46;22.70;99.90
42715;DHT22;28351;51.480;5.706;2022-10-24T13:22:28;22.00;99.90
42715;DHT22;28351;51.480;5.706;2022-10-24T13:24:55;21.60;99.90
42715;DHT22;28351;51.480;5.706;2022-10-24T13:27:25;21.90;99.90
42715;DHT22;28351;51.480;5.706;2022-10-24T13:29:58;22.00;99.90
42715;DHT22;28351;51.480;5.706;2022-10-24T13:32:30;22.30;99.90
42715;DHT22;28351;51.480;5.706;2022-10-24T13:34:57;22.50;99.90
42715;DHT22;28351;51.480;5.706;2022-10-24T13:37:44;22.20;99.90
42715;DHT22;28351;51.480;5.706;2022-10-24T13:40:28;22.50;99.90
42715;DHT22;28351;51.480;5.706;2022-10-24T13:43:00;22.20;99.90
42715;DHT22;28351;51.480;5.706;2022-10-24T13:48:15;21.60;99.90
42715;DHT22;28351;51.480;5.706;2022-10-24T13:51:02;20.50;99.90
42715;DHT22;28351;51.480;5.706;2022-10-24T13:53:30;19.80;99.90
42715;DHT22;28351;51.480;5.706;2022-10-24T13:56:08;19.40;99.90
42715;DHT22;28351;51.480;5.706;2022-10-24T13:58:40;19.30;99.90
42715;DHT22;28351;51.480;5.706;2022-10-24T14:01:17;19.60;99.90
42715;DHT22;28351;51.480;5.706;2022-10-24T14:03:44;20.40;99.90
42715;DHT22;28351;51.480;5.706;2022-10-24T14:06:11;20.60;99.90
42715;DHT22;28351;51.480;5.706;2022-10-24T14:08:41;20.70;99.90
42715;DHT22;28351;51.480;5.706;2022-10-24T14:11:15;21.00;99.90
42715;DHT22;28351;51.480;5.706;2022-10-24T14:13:50;20.80;99.90
42715;DHT22;28351;51.480;5.706;2022-10-24T14:16:25;21.40;99.90
42715;DHT22;28351;51.480;5.706;2022-10-24T14:18:51;21.10;99.90
42715;DHT22;28351;51.480;5.706;2022-10-24T14:21:19;20.90;99.90
42715;DHT22;28351;51.480;5.706;2022-10-24T14:23:58;21.10;99.90
42715;DHT22;28351;51.480;5.706;2022-10-24T14:26:27;21.60;99.90
42715;DHT22;28351;51.480;5.706;2022-10-24T14:28:56;21.40;99.90
42715;DHT22;28351;51.480;5.706;2022-10-24T14:31:24;21.20;99.90
42715;DHT22;28351;51.480;5.706;2022-10-24T14:33:53;20.50;99.90
42715;DHT22;28351;51.480;5.706;2022-10-24T14:36:21;19.70;99.90
42715;DHT22;28351;51.480;5.706;2022-10-24T14:38:49;19.10;99.90
42715;DHT22;28351;51.480;5.706;2022-10-24T14:41:25;18.80;99.90
42715;DHT22;28351;51.480;5.706;2022-10-24T14:43:52;18.40;99.90
42715;DHT22;28351;51.480;5.706;2022-10-24T14:48:50;18.20;99.90
42715;DHT22;28351;51.480;5.706;2022-10-24T14:51:16;18.20;99.90
42715;DHT22;28351;51.480;5.706;2022-10-24T14:53:45;18.40;99.90
42715;DHT22;28351;51.480;5.706;2022-10-24T14:56:36;18.40;99.90
42715;DHT22;28351;51.480;5.706;2022-10-24T14:59:29;18.40;99.90
42715;DHT22;28351;51.480;5.706;2022-10-24T15:02:00;18.30;99.90
42715;DHT22;28351;51.480;5.706;2022-10-24T15:04:38;18.30;99.90
42715;DHT22;28351;51.480;5.706;2022-10-24T15:09:59;18.10;99.90
42715;DHT22;28351;51.480;5.706;2022-10-24T15:12:40;18.00;99.90
42715;DHT22;28351;51.480;5.706;2022-10-24T15:15:26;17.90;99.90
42715;DHT22;28351;51.480;5.706;2022-10-24T15:17:57;17.90;99.90
42715;DHT22;28351;51.480;5.706;2022-10-24T15:20:24;17.70;99.90
42715;DHT22;28351;51.480;5.706;2022-10-24T15:22:58;17.70;99.90
42715;DHT22;28351;51.480;5.706;2022-10-24T15:25:28;17.60;99.90
42715;DHT22;28351;51.480;5.706;2022-10-24T15:27:55;17.50;99.90
42715;DHT22;28351;51.480;5.706;2022-10-24T15:30:24;17.40;99.90
42715;DHT22;28351;51.480;5.706;2022-10-24T15:32:51;17.30;99.90
42715;DHT22;28351;51.480;5.706;2022-10-24T15:35:17;17.30;99.90
42715;DHT22;28351;51.480;5.706;2022-10-24T15:38:13;17.10;99.90
42715;DHT22;28351;51.480;5.706;2022-10-24T15:40:46;17.10;99.90
42715;DHT22;28351;51.480;5.706;2022-10-24T15:43:13;17.10;99.90
42715;DHT22;28351;51.480;5.706;2022-10-24T15:45:41;17.00;99.90
42715;DHT22;28351;51.480;5.706;2022-10-24T15:48:06;16.90;99.90
42715;DHT22;28351;51.480;5.706;2022-10-24T15:50:33;16.80;99.90
42715;DHT22;28351;51.480;5.706;2022-10-24T15:53:01;16.80;99.90
42715;DHT22;28351;51.480;5.706;2022-10-24T15:55:29;16.70;99.90
42715;DHT22;28351;51.480;5.706;2022-10-24T15:57:55;16.60;99.90
42715;DHT22;28351;51.480;5.706;2022-10-24T16:00:22;16.60;99.90
42715;DHT22;28351;51.480;5.706;2022-10-24T16:02:50;16.50;99.90
42715;DHT22;28351;51.480;5.706;2022-10-24T16:05:22;16.30;99.90
42715;DHT22;28351;51.480;5.706;2022-10-24T16:07:49;16.30;99.90
42715;DHT22;28351;51.480;5.706;2022-10-24T16:10:19;16.10;99.90
42715;DHT22;28351;51.480;5.706;2022-10-24T16:12:46;16.00;99.90
42715;DHT22;28351;51.480;5.706;2022-10-24T16:15:34;15.90;99.90
42715;DHT22;28351;51.480;5.706;2022-10-24T16:18:00;15.90;99.90
42715;DHT22;28351;51.480;5.706;2022-10-24T16:20:26;15.80;99.90
42715;DHT22;28351;51.480;5.706;2022-10-24T16:22:52;15.80;99.90
42715;DHT22;28351;51.480;5.706;2022-10-24T16:25:20;15.70;99.90
42715;DHT22;28351;51.480;5.706;2022-10-24T16:27:46;15.70;99.90
42715;DHT22;28351;51.480;5.706;2022-10-24T16:30:13;15.70;99.90
42715;DHT22;28351;51.480;5.706;2022-10-24T16:32:39;15.80;99.90
42715;DHT22;28351;51.480;5.706;2022-10-24T16:35:05;15.80;99.90
42715;DHT22;28351;51.480;5.706;2022-10-24T16:37:31;15.80;99.90
42715;DHT22;28351;51.480;5.706;2022-10-24T16:39:58;15.90;99.90
42715;DHT22;28351;51.480;5.706;2022-10-24T16:42:23;15.90;99.90
42715;DHT22;28351;51.480;5.706;2022-10-24T16:44:50;16.00;99.90
42715;DHT22;28351;51.480;5.706;2022-10-24T16:47:16;16.00;99.90
42715;DHT22;28351;51.480;5.706;2022-10-24T16:49:42;16.00;99.90
42715;DHT22;28351;51.480;5.706;2022-10-24T16:52:10;15.90;99.90
42715;DHT22;28351;51.480;5.706;2022-10-24T16:54:36;15.90;99.90
42715;DHT22;28351;51.480;5.706;2022-10-24T16:57:02;16.00;99.90
42715;DHT22;28351;51.480;5.706;2022-10-24T16:59:28;16.00;99.90
42715;DHT22;28351;51.480;5.706;2022-10-24T17:01:54;16.00;99.90
42715;DHT22;28351;51.480;5.706;2022-10-24T17:04:20;16.00;99.90
42715;DHT22;28351;51.480;5.706;2022-10-24T17:06:45;16.00;99.90
42715;DHT22;28351;51.480;5.706;2022-10-24T17:09:11;15.70;99.90
42715;DHT22;28351;51.480;5.706;2022-10-24T17:11:38;15.40;99.90
42715;DHT22;28351;51.480;5.706;2022-10-24T17:14:05;15.20;99.90
42715;DHT22;28351;51.480;5.706;2022-10-24T17:16:31;15.00;99.90
42715;DHT22;28351;51.480;5.706;2022-10-24T17:18:56;14.80;99.90
42715;DHT22;28351;51.480;5.706;2022-10-24T17:21:22;14.70;99.90
42715;DHT22;28351;51.480;5.706;2022-10-24T17:23:50;14.60;99.90
42715;DHT22;28351;51.480;5.706;2022-10-24T17:26:16;14.50;99.90
42715;DHT22;28351;51.480;5.706;2022-10-24T17:28:42;14.40;99.90
42715;DHT22;28351;51.480;5.706;2022-10-24T17:31:10;14.30;99.90
42715;DHT22;28351;51.480;5.706;2022-10-24T17:33:36;14.30;99.90
42715;DHT22;28351;51.480;5.706;2022-10-24T17:36:06;14.30;99.90
42715;DHT22;28351;51.480;5.706;2022-10-24T17:41:35;14.20;99.90
42715;DHT22;28351;51.480;5.706;2022-10-24T17:44:02;14.20;99.90
42715;DHT22;28351;51.480;5.706;2022-10-24T17:46:28;14.10;99.90
42715;DHT22;28351;51.480;5.706;2022-10-24T17:48:54;14.10;99.90
42715;DHT22;28351;51.480;5.706;2022-10-24T17:51:23;14.10;99.90
42715;DHT22;28351;51.480;5.706;2022-10-24T17:53:49;14.10;99.90
42715;DHT22;28351;51.480;5.706;2022-10-24T17:56:15;14.10;99.90